sensor_id;sensor_type;location;lat;lon;timestamp;P1;durP1;ratioP1;P2;durP2;ratioP2
25129;SDS011;13308;50.860;13.664;2023-06-14T05:16:04;7.03;;;4.82;;
25129;SDS011;13308;50.860;13.664;2023-06-14T05:18:31;5.40;;;4.88;;
25129;SDS011;13308;50.860;13.664;2023-06-14T05:20:59;5.30;;;4.78;;
25129;SDS011;13308;50.860;13.664;2023-06-14T05:23:24;5.50;;;4.82;;
25129;SDS011;13308;50.860;13.664;2023-06-14T05:25:50;4.72;;;4.32;;
25129;SDS011;13308;50.860;13.664;2023-06-14T05:28:15;5.85;;;5.25;;
25129;SDS011;13308;50.860;13.664;2023-06-14T05:30:41;5.85;;;5.25;;
25129;SDS011;13308;50.860;13.664;2023-06-14T05:33:06;7.32;;;5.40;;
25129;SDS011;13308;50.860;13.664;2023-06-14T05:35:32;6.07;;;5.43;;
25129;SDS011;13308;50.860;13.664;2023-06-14T05:37:57;7.22;;;6.13;;
25129;SDS011;13308;50.860;13.664;2023-06-14T05:40:23;6.80;;;6.20;;
25129;SDS011;13308;50.860;13.664;2023-06-14T05:42:48;6.90;;;6.22;;
25129;SDS011;13308;50.860;13.664;2023-06-14T05:45:13;8.57;;;6.28;;
25129;SDS011;13308;50.860;13.664;2023-06-14T05:47:40;5.97;;;5.47;;
25129;SDS011;13308;50.860;13.664;2023-06-14T05:50:06;10.18;;;6.28;;
25129;SDS011;13308;50.860;13.664;2023-06-14T05:52:32;7.10;;;6.40;;
25129;SDS011;13308;50.860;13.664;2023-06-14T05:54:57;8.25;;;6.10;;
25129;SDS011;13308;50.860;13.664;2023-06-14T05:57:22;8.30;;;6.03;;
25129;SDS011;13308;50.860;13.664;2023-06-14T05:59:47;6.93;;;6.22;;
25129;SDS011;13308;50.860;13.664;2023-06-14T06:02:13;6.57;;;5.93;;
25129;SDS011;13308;50.860;13.664;2023-06-14T06:04:38;6.78;;;6.13;;
25129;SDS011;13308;50.860;13.664;2023-06-14T06:07:04;11.15;;;8.75;;
25129;SDS011;13308;50.860;13.664;2023-06-14T06:09:30;7.22;;;6.40;;
25129;SDS011;13308;50.860;13.664;2023-06-14T06:11:55;7.07;;;5.80;;
25129;SDS011;13308;50.860;13.664;2023-06-14T06:14:21;8.07;;;5.95;;
25129;SDS011;13308;50.860;13.664;2023-06-14T06:16:46;5.93;;;5.32;;
25129;SDS011;13308;50.860;13.664;2023-06-14T06:19:11;6.38;;;5.72;;
25129;SDS011;13308;50.860;13.664;2023-06-14T06:21:36;6.50;;;5.30;;
25129;SDS011;13308;50.860;13.664;2023-06-14T06:24:02;6.45;;;5.85;;
25129;SDS011;13308;50.860;13.664;2023-06-14T06:26:30;6.63;;;6.03;;
25129;SDS011;13308;50.860;13.664;2023-06-14T06:28:56;5.50;;;5.00;;
25129;SDS011;13308;50.860;13.664;2023-06-14T06:31:22;6.50;;;5.93;;
25129;SDS011;13308;50.860;13.664;2023-06-14T06:33:47;7.97;;;5.85;;
25129;SDS011;13308;50.860;13.664;2023-06-14T06:36:12;6.72;;;6.13;;
25129;SDS011;13308;50.860;13.664;2023-06-14T06:38:38;9.68;;;6.10;;
25129;SDS011;13308;50.860;13.664;2023-06-14T06:41:03;7.53;;;5.85;;
25129;SDS011;13308;50.860;13.664;2023-06-14T06:43:28;7.40;;;5.82;;
25129;SDS011;13308;50.860;13.664;2023-06-14T06:45:56;6.57;;;5.97;;
25129;SDS011;13308;50.860;13.664;2023-06-14T06:48:21;6.63;;;6.03;;
25129;SDS011;13308;50.860;13.664;2023-06-14T06:50:47;7.57;;;6.70;;
25129;SDS011;13308;50.860;13.664;2023-06-14T06:53:12;6.60;;;6.00;;
25129;SDS011;13308;50.860;13.664;2023-06-14T06:55:37;7.78;;;6.63;;
25129;SDS011;13308;50.860;13.664;2023-06-14T06:58:03;7.68;;;6.85;;
25129;SDS011;13308;50.860;13.664;2023-06-14T07:00:30;7.28;;;6.57;;
25129;SDS011;13308;50.860;13.664;2023-06-14T07:02:55;6.10;;;5.22;;
25129;SDS011;13308;50.860;13.664;2023-06-14T07:05:22;6.43;;;5.65;;
25129;SDS011;13308;50.860;13.664;2023-06-14T07:07:47;6.18;;;4.70;;
25129;SDS011;13308;50.860;13.664;2023-06-14T07:10:12;5.63;;;5.13;;
25129;SDS011;13308;50.860;13.664;2023-06-14T07:12:38;4.85;;;4.40;;
25129;SDS011;13308;50.860;13.664;2023-06-14T07:15:05;5.43;;;4.90;;
25129;SDS011;13308;50.860;13.664;2023-06-14T07:17:32;4.90;;;4.50;;
25129;SDS011;13308;50.860;13.664;2023-06-14T07:19:58;6.38;;;4.93;;
25129;SDS011;13308;50.860;13.664;2023-06-14T07:22:24;4.70;;;4.30;;
25129;SDS011;13308;50.860;13.664;2023-06-14T07:24:49;4.13;;;3.83;;
25129;SDS011;13308;50.860;13.664;2023-06-14T07:27:14;4.25;;;3.95;;
25129;SDS011;13308;50.860;13.664;2023-06-14T07:29:40;4.35;;;3.92;;
25129;SDS011;13308;50.860;13.664;2023-06-14T07:32:05;4.57;;;4.18;;
25129;SDS011;13308;50.860;13.664;2023-06-14T07:34:31;4.50;;;4.13;;
25129;SDS011;13308;50.860;13.664;2023-06-14T07:36:56;5.55;;;4.05;;
25129;SDS011;13308;50.860;13.664;2023-06-14T07:39:22;4.47;;;4.18;;
25129;SDS011;13308;50.860;13.664;2023-06-14T07:41:48;4.28;;;3.97;;
25129;SDS011;13308;50.860;13.664;2023-06-14T07:44:13;4.68;;;4.07;;
25129;SDS011;13308;50.860;13.664;2023-06-14T07:46:38;4.28;;;3.88;;
25129;SDS011;13308;50.860;13.664;2023-06-14T07:49:04;6.25;;;3.90;;
25129;SDS011;13308;50.860;13.664;2023-06-14T07:51:30;4.80;;;4.30;;
25129;SDS011;13308;50.860;13.664;2023-06-14T07:53:55;4.22;;;3.83;;
25129;SDS011;13308;50.860;13.664;2023-06-14T07:56:21;4.97;;;4.57;;
25129;SDS011;13308;50.860;13.664;2023-06-14T07:58:46;4.38;;;3.95;;
25129;SDS011;13308;50.860;13.664;2023-06-14T08:01:12;4.72;;;3.80;;
25129;SDS011;13308;50.860;13.664;2023-06-14T08:03:37;4.05;;;3.75;;
25129;SDS011;13308;50.860;13.664;2023-06-14T08:06:02;4.63;;;4.28;;
25129;SDS011;13308;50.860;13.664;2023-06-14T08:08:29;4.88;;;4.35;;
25129;SDS011;13308;50.860;13.664;2023-06-14T08:10:54;4.10;;;3.80;;
25129;SDS011;13308;50.860;13.664;2023-06-14T08:13:20;4.50;;;4.18;;
25129;SDS011;13308;50.860;13.664;2023-06-14T08:15:45;4.35;;;3.50;;
25129;SDS011;13308;50.860;13.664;2023-06-14T08:18:10;3.92;;;3.70;;
25129;SDS011;13308;50.860;13.664;2023-06-14T08:20:36;4.25;;;3.95;;
25129;SDS011;13308;50.860;13.664;2023-06-14T08:23:04;4.68;;;3.88;;
25129;SDS011;13308;50.860;13.664;2023-06-14T08:25:29;5.95;;;3.83;;
25129;SDS011;13308;50.860;13.664;2023-06-14T08:27:55;4.22;;;3.63;;
25129;SDS011;13308;50.860;13.664;2023-06-14T08:30:21;5.07;;;4.15;;
25129;SDS011;13308;50.860;13.664;2023-06-14T08:32:47;3.90;;;3.60;;
25129;SDS011;13308;50.860;13.664;2023-06-14T08:35:12;4.13;;;3.72;;
25129;SDS011;13308;50.860;13.664;2023-06-14T08:37:41;4.07;;;3.78;;
25129;SDS011;13308;50.860;13.664;2023-06-14T08:40:12;4.07;;;3.78;;
25129;SDS011;13308;50.860;13.664;2023-06-14T08:42:44;4.13;;;3.83;;
25129;SDS011;13308;50.860;13.664;2023-06-14T08:45:11;4.78;;;4.38;;
25129;SDS011;13308;50.860;13.664;2023-06-14T08:47:36;5.65;;;5.15;;
25129;SDS011;13308;50.860;13.664;2023-06-14T08:50:02;5.07;;;4.60;;
25129;SDS011;13308;50.860;13.664;2023-06-14T08:52:30;5.50;;;4.30;;
25129;SDS011;13308;50.860;13.664;2023-06-14T08:54:59;5.63;;;4.45;;
25129;SDS011;13308;50.860;13.664;2023-06-14T08:57:27;4.30;;;4.00;;
25129;SDS011;13308;50.860;13.664;2023-06-14T08:59:55;4.38;;;4.07;;
25129;SDS011;13308;50.860;13.664;2023-06-14T09:02:22;5.32;;;4.93;;
25129;SDS011;13308;50.860;13.664;2023-06-14T09:04:47;5.68;;;5.18;;
25129;SDS011;13308;50.860;13.664;2023-06-14T09:07:14;7.45;;;5.35;;
25129;SDS011;13308;50.860;13.664;2023-06-14T09:09:40;6.03;;;4.82;;
25129;SDS011;13308;50.860;13.664;2023-06-14T09:12:07;5.13;;;4.63;;
25129;SDS011;13308;50.860;13.664;2023-06-14T09:14:35;5.53;;;5.13;;
25129;SDS011;13308;50.860;13.664;2023-06-14T09:17:03;5.25;;;4.60;;
25129;SDS011;13308;50.860;13.664;2023-06-14T09:19:29;5.15;;;4.68;;
25129;SDS011;13308;50.860;13.664;2023-06-14T09:21:54;5.38;;;4.43;;
25129;SDS011;13308;50.860;13.664;2023-06-14T09:24:20;5.07;;;4.57;;
25129;SDS011;13308;50.860;13.664;2023-06-14T09:26:50;4.80;;;4.35;;
25129;SDS011;13308;50.860;13.664;2023-06-14T09:29:16;4.30;;;3.90;;
25129;SDS011;13308;50.860;13.664;2023-06-14T09:31:42;5.18;;;3.50;;
25129;SDS011;13308;50.860;13.664;2023-06-14T09:34:08;4.35;;;3.95;;
25129;SDS011;13308;50.860;13.664;2023-06-14T09:36:34;3.53;;;3.22;;
25129;SDS011;13308;50.860;13.664;2023-06-14T09:39:00;5.22;;;3.22;;
25129;SDS011;13308;50.860;13.664;2023-06-14T09:41:37;3.65;;;3.35;;
25129;SDS011;13308;50.860;13.664;2023-06-14T09:44:05;4.05;;;3.35;;
25129;SDS011;13308;50.860;13.664;2023-06-14T09:46:32;4.45;;;3.08;;
25129;SDS011;13308;50.860;13.664;2023-06-14T09:48:58;3.55;;;3.25;;
25129;SDS011;13308;50.860;13.664;2023-06-14T09:51:24;3.78;;;3.22;;
25129;SDS011;13308;50.860;13.664;2023-06-14T09:53:51;3.70;;;3.40;;
25129;SDS011;13308;50.860;13.664;2023-06-14T09:56:22;3.63;;;3.33;;
25129;SDS011;13308;50.860;13.664;2023-06-14T09:58:54;4.30;;;4.00;;
25129;SDS011;13308;50.860;13.664;2023-06-14T10:01:21;4.50;;;3.30;;
25129;SDS011;13308;50.860;13.664;2023-06-14T10:03:49;4.03;;;3.72;;
25129;SDS011;13308;50.860;13.664;2023-06-14T10:06:17;3.75;;;3.40;;
25129;SDS011;13308;50.860;13.664;2023-06-14T10:08:43;4.13;;;3.83;;
25129;SDS011;13308;50.860;13.664;2023-06-14T10:11:10;4.18;;;3.75;;
25129;SDS011;13308;50.860;13.664;2023-06-14T10:13:37;3.85;;;3.55;;
25129;SDS011;13308;50.860;13.664;2023-06-14T10:16:15;3.90;;;3.50;;
25129;SDS011;13308;50.860;13.664;2023-06-14T10:18:49;6.78;;;3.10;;
25129;SDS011;13308;50.860;13.664;2023-06-14T10:21:36;2.97;;;2.63;;
25129;SDS011;13308;50.860;13.664;2023-06-14T10:24:06;3.50;;;3.20;;
25129;SDS011;13308;50.860;13.664;2023-06-14T10:26:35;3.10;;;2.88;;
25129;SDS011;13308;50.860;13.664;2023-06-14T10:29:15;3.58;;;3.25;;
25129;SDS011;13308;50.860;13.664;2023-06-14T10:34:11;3.35;;;3.00;;
25129;SDS011;13308;50.860;13.664;2023-06-14T10:37:06;3.55;;;3.20;;
25129;SDS011;13308;50.860;13.664;2023-06-14T10:39:39;3.53;;;3.22;;
25129;SDS011;13308;50.860;13.664;2023-06-14T10:42:06;4.35;;;3.60;;
25129;SDS011;13308;50.860;13.664;2023-06-14T10:44:33;3.40;;;3.10;;
25129;SDS011;13308;50.860;13.664;2023-06-14T10:47:04;3.75;;;3.38;;
25129;SDS011;13308;50.860;13.664;2023-06-14T10:49:39;3.63;;;2.95;;
25129;SDS011;13308;50.860;13.664;2023-06-14T10:52:09;3.83;;;3.50;;
25129;SDS011;13308;50.860;13.664;2023-06-14T10:55:00;5.97;;;3.28;;
25129;SDS011;13308;50.860;13.664;2023-06-14T10:57:30;3.92;;;3.53;;
25129;SDS011;13308;50.860;13.664;2023-06-14T11:00:00;3.75;;;3.45;;
25129;SDS011;13308;50.860;13.664;2023-06-14T11:02:40;3.90;;;3.47;;
25129;SDS011;13308;50.860;13.664;2023-06-14T11:05:16;4.30;;;3.90;;
25129;SDS011;13308;50.860;13.664;2023-06-14T11:07:58;4.22;;;3.72;;
25129;SDS011;13308;50.860;13.664;2023-06-14T11:10:42;3.75;;;3.40;;
25129;SDS011;13308;50.860;13.664;2023-06-14T11:13:10;3.80;;;3.50;;
25129;SDS011;13308;50.860;13.664;2023-06-14T11:15:36;4.25;;;3.85;;
25129;SDS011;13308;50.860;13.664;2023-06-14T11:18:03;3.67;;;3.05;;
25129;SDS011;13308;50.860;13.664;2023-06-14T11:20:31;3.60;;;3.30;;
25129;SDS011;13308;50.860;13.664;2023-06-14T11:22:57;4.68;;;3.25;;
25129;SDS011;13308;50.860;13.664;2023-06-14T11:25:23;3.67;;;3.38;;
25129;SDS011;13308;50.860;13.664;2023-06-14T11:27:49;3.47;;;3.25;;
25129;SDS011;13308;50.860;13.664;2023-06-14T11:30:16;3.38;;;3.08;;
25129;SDS011;13308;50.860;13.664;2023-06-14T11:32:41;3.75;;;3.45;;
25129;SDS011;13308;50.860;13.664;2023-06-14T11:35:07;3.30;;;3.10;;
25129;SDS011;13308;50.860;13.664;2023-06-14T11:37:34;2.70;;;2.50;;
25129;SDS011;13308;50.860;13.664;2023-06-14T11:40:02;4.32;;;3.03;;
25129;SDS011;13308;50.860;13.664;2023-06-14T11:42:35;3.63;;;3.33;;
25129;SDS011;13308;50.860;13.664;2023-06-14T11:45:01;3.75;;;3.30;;
25129;SDS011;13308;50.860;13.664;2023-06-14T11:47:34;3.20;;;2.95;;
25129;SDS011;13308;50.860;13.664;2023-06-14T11:50:04;3.25;;;2.92;;
25129;SDS011;13308;50.860;13.664;2023-06-14T11:52:30;3.10;;;2.90;;
25129;SDS011;13308;50.860;13.664;2023-06-14T11:54:56;3.72;;;3.42;;
25129;SDS011;13308;50.860;13.664;2023-06-14T11:57:22;3.45;;;3.00;;
25129;SDS011;13308;50.860;13.664;2023-06-14T11:59:48;3.30;;;3.03;;
25129;SDS011;13308;50.860;13.664;2023-06-14T12:02:14;3.40;;;3.10;;
25129;SDS011;13308;50.860;13.664;2023-06-14T12:04:44;3.20;;;2.90;;
25129;SDS011;13308;50.860;13.664;2023-06-14T12:07:12;3.25;;;2.95;;
25129;SDS011;13308;50.860;13.664;2023-06-14T12:12:16;3.20;;;2.95;;
25129;SDS011;13308;50.860;13.664;2023-06-14T12:14:41;2.97;;;2.78;;
25129;SDS011;13308;50.860;13.664;2023-06-14T12:17:07;3.60;;;3.30;;
25129;SDS011;13308;50.860;13.664;2023-06-14T12:19:33;4.10;;;3.75;;
25129;SDS011;13308;50.860;13.664;2023-06-14T12:22:01;3.55;;;3.25;;
25129;SDS011;13308;50.860;13.664;2023-06-14T12:24:30;4.15;;;3.75;;
25129;SDS011;13308;50.860;13.664;2023-06-14T12:26:59;4.28;;;3.90;;
25129;SDS011;13308;50.860;13.664;2023-06-14T12:29:25;3.70;;;3.40;;
25129;SDS011;13308;50.860;13.664;2023-06-14T12:31:50;4.78;;;3.78;;
25129;SDS011;13308;50.860;13.664;2023-06-14T12:34:16;4.35;;;3.92;;
25129;SDS011;13308;50.860;13.664;2023-06-14T12:36:41;3.97;;;3.67;;
25129;SDS011;13308;50.860;13.664;2023-06-14T12:39:09;3.92;;;3.63;;
25129;SDS011;13308;50.860;13.664;2023-06-14T12:41:35;4.63;;;3.95;;
25129;SDS011;13308;50.860;13.664;2023-06-14T12:44:01;4.07;;;3.75;;
25129;SDS011;13308;50.860;13.664;2023-06-14T12:46:29;3.72;;;3.35;;
25129;SDS011;13308;50.860;13.664;2023-06-14T12:48:56;4.65;;;4.22;;
25129;SDS011;13308;50.860;13.664;2023-06-14T12:51:21;4.13;;;3.78;;
25129;SDS011;13308;50.860;13.664;2023-06-14T12:53:47;4.72;;;3.90;;
25129;SDS011;13308;50.860;13.664;2023-06-14T12:56:13;4.43;;;4.03;;
25129;SDS011;13308;50.860;13.664;2023-06-14T12:58:39;3.97;;;3.60;;
25129;SDS011;13308;50.860;13.664;2023-06-14T13:01:04;3.45;;;3.17;;
25129;SDS011;13308;50.860;13.664;2023-06-14T13:03:30;3.55;;;3.25;;
25129;SDS011;13308;50.860;13.664;2023-06-14T13:05:55;5.25;;;4.50;;
25129;SDS011;13308;50.860;13.664;2023-06-14T13:08:21;4.57;;;4.18;;
25129;SDS011;13308;50.860;13.664;2023-06-14T13:10:47;4.20;;;3.88;;
25129;SDS011;13308;50.860;13.664;2023-06-14T13:13:12;4.18;;;3.78;;
25129;SDS011;13308;50.860;13.664;2023-06-14T13:15:38;4.28;;;3.97;;
25129;SDS011;13308;50.860;13.664;2023-06-14T13:18:04;4.75;;;4.40;;
25129;SDS011;13308;50.860;13.664;2023-06-14T13:20:30;4.47;;;4.07;;
25129;SDS011;13308;50.860;13.664;2023-06-14T13:22:56;4.32;;;4.03;;
25129;SDS011;13308;50.860;13.664;2023-06-14T13:25:21;4.60;;;4.30;;
25129;SDS011;13308;50.860;13.664;2023-06-14T13:27:47;4.90;;;4.15;;
25129;SDS011;13308;50.860;13.664;2023-06-14T13:30:13;4.82;;;4.43;;
25129;SDS011;13308;50.860;13.664;2023-06-14T13:32:39;4.70;;;4.18;;
25129;SDS011;13308;50.860;13.664;2023-06-14T13:35:04;4.60;;;4.20;;
25129;SDS011;13308;50.860;13.664;2023-06-14T13:37:30;4.68;;;3.63;;
25129;SDS011;13308;50.860;13.664;2023-06-14T13:39:55;2.70;;;2.50;;
25129;SDS011;13308;50.860;13.664;2023-06-14T13:42:21;2.88;;;2.67;;
25129;SDS011;13308;50.860;13.664;2023-06-14T13:44:46;3.20;;;3.00;;
25129;SDS011;13308;50.860;13.664;2023-06-14T13:47:11;3.70;;;3.40;;
25129;SDS011;13308;50.860;13.664;2023-06-14T13:49:37;3.67;;;3.38;;
25129;SDS011;13308;50.860;13.664;2023-06-14T13:52:02;3.40;;;3.10;;
25129;SDS011;13308;50.860;13.664;2023-06-14T13:54:28;3.45;;;3.20;;
25129;SDS011;13308;50.860;13.664;2023-06-14T13:56:53;3.92;;;3.53;;
25129;SDS011;13308;50.860;13.664;2023-06-14T13:59:19;3.55;;;3.25;;
25129;SDS011;13308;50.860;13.664;2023-06-14T14:01:45;3.40;;;3.20;;
25129;SDS011;13308;50.860;13.664;2023-06-14T14:04:10;4.50;;;4.20;;
25129;SDS011;13308;50.860;13.664;2023-06-14T14:06:36;4.55;;;3.83;;
25129;SDS011;13308;50.860;13.664;2023-06-14T14:09:02;3.60;;;3.30;;
25129;SDS011;13308;50.860;13.664;2023-06-14T14:11:27;4.20;;;3.90;;
25129;SDS011;13308;50.860;13.664;2023-06-14T14:13:53;6.15;;;4.22;;
25129;SDS011;13308;50.860;13.664;2023-06-14T14:16:18;4.35;;;3.95;;
25129;SDS011;13308;50.860;13.664;2023-06-14T14:18:45;4.28;;;3.97;;
25129;SDS011;13308;50.860;13.664;2023-06-14T14:21:11;4.72;;;4.32;;
25129;SDS011;13308;50.860;13.664;2023-06-14T14:23:36;4.38;;;4.07;;
25129;SDS011;13308;50.860;13.664;2023-06-14T14:26:02;4.47;;;4.07;;
25129;SDS011;13308;50.860;13.664;2023-06-14T14:28:29;5.07;;;3.90;;
25129;SDS011;13308;50.860;13.664;2023-06-14T14:30:55;4.07;;;3.50;;
25129;SDS011;13308;50.860;13.664;2023-06-14T14:33:21;5.22;;;3.88;;
25129;SDS011;13308;50.860;13.664;2023-06-14T14:35:46;5.68;;;3.60;;
25129;SDS011;13308;50.860;13.664;2023-06-14T14:38:12;4.45;;;3.65;;
25129;SDS011;13308;50.860;13.664;2023-06-14T14:40:38;3.13;;;2.90;;
25129;SDS011;13308;50.860;13.664;2023-06-14T14:43:05;3.60;;;3.38;;
25129;SDS011;13308;50.860;13.664;2023-06-14T14:45:31;4.57;;;4.18;;
25129;SDS011;13308;50.860;13.664;2023-06-14T14:47:56;4.20;;;3.90;;
25129;SDS011;13308;50.860;13.664;2023-06-14T14:50:21;4.28;;;3.90;;
25129;SDS011;13308;50.860;13.664;2023-06-14T14:52:47;4.97;;;4.57;;
25129;SDS011;13308;50.860;13.664;2023-06-14T14:55:12;4.82;;;4.43;;
25129;SDS011;13308;50.860;13.664;2023-06-14T14:57:38;5.43;;;4.93;;
25129;SDS011;13308;50.860;13.664;2023-06-14T15:00:04;6.28;;;5.13;;
25129;SDS011;13308;50.860;13.664;2023-06-14T15:02:31;5.32;;;4.10;;
25129;SDS011;13308;50.860;13.664;2023-06-14T15:04:56;4.20;;;3.90;;
25129;SDS011;13308;50.860;13.664;2023-06-14T15:07:25;4.53;;;4.13;;
25129;SDS011;13308;50.860;13.664;2023-06-14T15:09:54;4.70;;;4.30;;
25129;SDS011;13308;50.860;13.664;2023-06-14T15:12:20;4.35;;;4.00;;
25129;SDS011;13308;50.860;13.664;2023-06-14T15:14:48;4.53;;;4.22;;
25129;SDS011;13308;50.860;13.664;2023-06-14T15:17:19;4.55;;;4.15;;
25129;SDS011;13308;50.860;13.664;2023-06-14T15:19:45;4.03;;;3.72;;
25129;SDS011;13308;50.860;13.664;2023-06-14T15:22:11;3.85;;;3.53;;
25129;SDS011;13308;50.860;13.664;2023-06-14T15:24:37;3.70;;;3.40;;
25129;SDS011;13308;50.860;13.664;2023-06-14T15:27:02;4.50;;;3.92;;
25129;SDS011;13308;50.860;13.664;2023-06-14T15:29:28;4.28;;;3.88;;
25129;SDS011;13308;50.860;13.664;2023-06-14T15:31:53;3.80;;;3.42;;
25129;SDS011;13308;50.860;13.664;2023-06-14T15:34:20;3.72;;;3.42;;
25129;SDS011;13308;50.860;13.664;2023-06-14T15:36:45;3.95;;;3.65;;
25129;SDS011;13308;50.860;13.664;2023-06-14T15:39:11;3.90;;;3.60;;
25129;SDS011;13308;50.860;13.664;2023-06-14T15:41:36;3.58;;;3.28;;
25129;SDS011;13308;50.860;13.664;2023-06-14T15:44:01;3.90;;;3.53;;
25129;SDS011;13308;50.860;13.664;2023-06-14T15:46:27;3.92;;;3.63;;
25129;SDS011;13308;50.860;13.664;2023-06-14T15:48:52;3.63;;;3.33;;
25129;SDS011;13308;50.860;13.664;2023-06-14T15:51:18;3.97;;;3.58;;
25129;SDS011;13308;50.860;13.664;2023-06-14T15:53:43;3.88;;;3.47;;
25129;SDS011;13308;50.860;13.664;2023-06-14T15:56:08;3.72;;;3.42;;
25129;SDS011;13308;50.860;13.664;2023-06-14T15:58:34;3.75;;;3.45;;
25129;SDS011;13308;50.860;13.664;2023-06-14T16:00:59;4.07;;;3.67;;
25129;SDS011;13308;50.860;13.664;2023-06-14T16:03:24;4.00;;;3.70;;
25129;SDS011;13308;50.860;13.664;2023-06-14T16:05:50;4.60;;;4.20;;
25129;SDS011;13308;50.860;13.664;2023-06-14T16:08:15;4.18;;;3.88;;
25129;SDS011;13308;50.860;13.664;2023-06-14T16:10:40;4.38;;;3.97;;
25129;SDS011;13308;50.860;13.664;2023-06-14T16:13:06;4.20;;;3.90;;
25129;SDS011;13308;50.860;13.664;2023-06-14T16:15:31;4.53;;;4.13;;
25129;SDS011;13308;50.860;13.664;2023-06-14T16:17:56;4.72;;;4.00;;
25129;SDS011;13308;50.860;13.664;2023-06-14T16:20:22;5.47;;;3.92;;
25129;SDS011;13308;50.860;13.664;2023-06-14T16:22:47;4.40;;;4.00;;
25129;SDS011;13308;50.860;13.664;2023-06-14T16:25:13;4.47;;;4.07;;
25129;SDS011;13308;50.860;13.664;2023-06-14T16:27:38;4.00;;;3.65;;
25129;SDS011;13308;50.860;13.664;2023-06-14T16:30:03;5.30;;;3.53;;
25129;SDS011;13308;50.860;13.664;2023-06-14T16:32:29;4.10;;;3.80;;
25129;SDS011;13308;50.860;13.664;2023-06-14T16:34:55;4.22;;;3.65;;
25129;SDS011;13308;50.860;13.664;2023-06-14T16:37:20;4.07;;;3.67;;
25129;SDS011;13308;50.860;13.664;2023-06-14T16:39:46;4.05;;;3.75;;
25129;SDS011;13308;50.860;13.664;2023-06-14T16:42:11;3.95;;;3.65;;
25129;SDS011;13308;50.860;13.664;2023-06-14T16:44:37;4.28;;;3.78;;
25129;SDS011;13308;50.860;13.664;2023-06-14T16:47:02;4.93;;;3.80;;
25129;SDS011;13308;50.860;13.664;2023-06-14T16:49:29;4.18;;;3.72;;
25129;SDS011;13308;50.860;13.664;2023-06-14T16:51:54;4.57;;;4.18;;
25129;SDS011;13308;50.860;13.664;2023-06-14T16:54:19;4.65;;;4.07;;
25129;SDS011;13308;50.860;13.664;2023-06-14T16:56:45;3.80;;;3.40;;
25129;SDS011;13308;50.860;13.664;2023-06-14T16:59:10;3.70;;;3.40;;
25129;SDS011;13308;50.860;13.664;2023-06-14T17:01:35;4.10;;;3.70;;
25129;SDS011;13308;50.860;13.664;2023-06-14T17:04:01;4.13;;;3.72;;
25129;SDS011;13308;50.860;13.664;2023-06-14T17:06:26;3.85;;;3.55;;
25129;SDS011;13308;50.860;13.664;2023-06-14T17:08:52;4.22;;;3.83;;
25129;SDS011;13308;50.860;13.664;2023-06-14T17:11:17;3.83;;;3.53;;
25129;SDS011;13308;50.860;13.664;2023-06-14T17:13:43;4.00;;;3.70;;
25129;SDS011;13308;50.860;13.664;2023-06-14T17:16:09;4.50;;;4.10;;
25129;SDS011;13308;50.860;13.664;2023-06-14T17:18:35;4.45;;;4.05;;
25129;SDS011;13308;50.860;13.664;2023-06-14T17:21:01;4.78;;;4.38;;
25129;SDS011;13308;50.860;13.664;2023-06-14T17:23:27;4.50;;;4.10;;
25129;SDS011;13308;50.860;13.664;2023-06-14T17:25:52;4.55;;;4.15;;
25129;SDS011;13308;50.860;13.664;2023-06-14T17:28:18;4.63;;;3.95;;
25129;SDS011;13308;50.860;13.664;2023-06-14T17:30:43;5.13;;;4.68;;
25129;SDS011;13308;50.860;13.664;2023-06-14T17:33:09;5.03;;;4.10;;
25129;SDS011;13308;50.860;13.664;2023-06-14T17:35:35;4.88;;;4.35;;
25129;SDS011;13308;50.860;13.664;2023-06-14T17:38:02;4.30;;;3.90;;
25129;SDS011;13308;50.860;13.664;2023-06-14T17:40:28;5.15;;;4.70;;
25129;SDS011;13308;50.860;13.664;2023-06-14T17:42:53;5.43;;;4.93;;
25129;SDS011;13308;50.860;13.664;2023-06-14T17:45:19;5.65;;;5.05;;
25129;SDS011;13308;50.860;13.664;2023-06-14T17:47:44;5.15;;;4.75;;
25129;SDS011;13308;50.860;13.664;2023-06-14T17:50:09;5.38;;;4.88;;
25129;SDS011;13308;50.860;13.664;2023-06-14T17:52:35;5.40;;;4.90;;
25129;SDS011;13308;50.860;13.664;2023-06-14T17:55:00;5.20;;;4.72;;
25129;SDS011;13308;50.860;13.664;2023-06-14T17:57:25;5.78;;;5.18;;
